aviador You're here:

KDVP Decoded Metar

SLAYTON in MN, USA
Report Time2017-05-29 01:45:00
UTC Time2017-05-29 01:59:22
Flight Rules vfr VFR
Wind260° at 07 kt
W.Decomp.*RWY 17: 0.5 kt HW 7.0 kt RCW
W.Rank260° ranks 21
Current wind is below 260° avg. (8.9)
Visibility9999 m
Phenomena:N/A
Clouds:Scattered 065 Hf
Scattered 080 Hf
Scattered 100 Hf
Expected CloudBase > 1,600 ft AGL from Temp-Dew spread
CeilingNone
Temp13°C (ISA +1)
Dew Point09°C (77% RH)
AAT10.3°C
QNH1011 hPa
Density Alt1,998 ft
Elevation1,624 ft
Report Wrong Elevation
Raw Report
METAR KDVP 290145Z AUTO 26007KT 10SM SCT065 SCT080 SCT100 13/09 A2986
RMK AO2 P0005 T01270088=

Extra information for KDVP:More info

Metar Taf Metar & Taf Last 4 Metars F.Rules Stats Wind Profile Meteogram Temp Stats Airport Information Weather charts Add Link Nearby VenuesMetar ALERT Operation Metar Decoded Social comments

AIRNAV info for KDVP